sensor_id;sensor_type;location;lat;lon;timestamp;P1;durP1;ratioP1;P2;durP2;ratioP2
49422;SDS011;36998;51.974;20.150;2022-12-26T00:01:16;34.25;;;15.38;;
49422;SDS011;36998;51.974;20.150;2022-12-26T00:03:44;35.10;;;15.20;;
49422;SDS011;36998;51.974;20.150;2022-12-26T00:06:10;41.80;;;17.02;;
49422;SDS011;36998;51.974;20.150;2022-12-26T00:08:40;34.15;;;16.17;;
49422;SDS011;36998;51.974;20.150;2022-12-26T00:11:07;40.00;;;16.33;;
49422;SDS011;36998;51.974;20.150;2022-12-26T00:13:32;35.50;;;15.20;;
49422;SDS011;36998;51.974;20.150;2022-12-26T00:15:58;34.05;;;15.30;;
49422;SDS011;36998;51.974;20.150;2022-12-26T00:18:23;31.42;;;14.10;;
49422;SDS011;36998;51.974;20.150;2022-12-26T00:20:49;32.10;;;14.70;;
49422;SDS011;36998;51.974;20.150;2022-12-26T00:23:15;33.20;;;15.13;;
49422;SDS011;36998;51.974;20.150;2022-12-26T00:25:41;41.90;;;15.63;;
49422;SDS011;36998;51.974;20.150;2022-12-26T00:28:06;33.97;;;15.38;;
49422;SDS011;36998;51.974;20.150;2022-12-26T00:30:32;40.47;;;15.63;;
49422;SDS011;36998;51.974;20.150;2022-12-26T00:32:57;36.55;;;15.70;;
49422;SDS011;36998;51.974;20.150;2022-12-26T00:35:23;35.97;;;14.88;;
49422;SDS011;36998;51.974;20.150;2022-12-26T00:37:48;31.35;;;15.15;;
49422;SDS011;36998;51.974;20.150;2022-12-26T00:40:17;34.72;;;15.70;;
49422;SDS011;36998;51.974;20.150;2022-12-26T00:42:43;38.35;;;16.33;;
49422;SDS011;36998;51.974;20.150;2022-12-26T00:45:08;35.97;;;16.63;;
49422;SDS011;36998;51.974;20.150;2022-12-26T00:47:34;50.85;;;18.33;;
49422;SDS011;36998;51.974;20.150;2022-12-26T00:50:00;38.08;;;17.52;;
49422;SDS011;36998;51.974;20.150;2022-12-26T00:52:25;40.85;;;17.02;;
49422;SDS011;36998;51.974;20.150;2022-12-26T00:54:51;42.78;;;17.42;;
49422;SDS011;36998;51.974;20.150;2022-12-26T00:57:17;35.92;;;17.02;;
49422;SDS011;36998;51.974;20.150;2022-12-26T00:59:42;39.55;;;16.95;;
49422;SDS011;36998;51.974;20.150;2022-12-26T01:02:08;39.28;;;17.25;;
49422;SDS011;36998;51.974;20.150;2022-12-26T01:04:53;37.58;;;17.95;;
49422;SDS011;36998;51.974;20.150;2022-12-26T01:07:19;41.15;;;17.55;;
49422;SDS011;36998;51.974;20.150;2022-12-26T01:09:44;49.30;;;18.45;;
49422;SDS011;36998;51.974;20.150;2022-12-26T01:12:10;43.45;;;17.92;;
49422;SDS011;36998;51.974;20.150;2022-12-26T01:14:36;41.42;;;19.55;;
49422;SDS011;36998;51.974;20.150;2022-12-26T01:17:01;38.60;;;17.27;;
49422;SDS011;36998;51.974;20.150;2022-12-26T01:19:27;45.40;;;17.98;;
49422;SDS011;36998;51.974;20.150;2022-12-26T01:21:52;47.30;;;18.42;;
49422;SDS011;36998;51.974;20.150;2022-12-26T01:24:18;40.85;;;17.70;;
49422;SDS011;36998;51.974;20.150;2022-12-26T01:26:44;43.80;;;18.48;;
49422;SDS011;36998;51.974;20.150;2022-12-26T01:29:10;46.72;;;19.25;;
49422;SDS011;36998;51.974;20.150;2022-12-26T01:31:36;41.47;;;18.48;;
49422;SDS011;36998;51.974;20.150;2022-12-26T01:34:01;49.35;;;19.65;;
49422;SDS011;36998;51.974;20.150;2022-12-26T01:36:27;47.80;;;19.33;;
49422;SDS011;36998;51.974;20.150;2022-12-26T01:38:52;44.50;;;19.30;;
49422;SDS011;36998;51.974;20.150;2022-12-26T01:41:18;41.40;;;18.30;;
49422;SDS011;36998;51.974;20.150;2022-12-26T01:46:16;42.13;;;18.30;;
49422;SDS011;36998;51.974;20.150;2022-12-26T01:51:11;37.55;;;17.40;;
49422;SDS011;36998;51.974;20.150;2022-12-26T01:53:40;35.83;;;17.52;;
49422;SDS011;36998;51.974;20.150;2022-12-26T01:56:11;44.75;;;17.50;;
49422;SDS011;36998;51.974;20.150;2022-12-26T01:58:43;41.97;;;17.88;;
49422;SDS011;36998;51.974;20.150;2022-12-26T02:01:17;36.72;;;17.20;;
49422;SDS011;36998;51.974;20.150;2022-12-26T02:03:45;37.13;;;17.45;;
49422;SDS011;36998;51.974;20.150;2022-12-26T02:06:30;33.55;;;16.98;;
49422;SDS011;36998;51.974;20.150;2022-12-26T02:08:57;38.10;;;16.83;;
49422;SDS011;36998;51.974;20.150;2022-12-26T02:11:28;34.42;;;16.92;;
49422;SDS011;36998;51.974;20.150;2022-12-26T02:13:59;41.28;;;17.15;;
49422;SDS011;36998;51.974;20.150;2022-12-26T02:16:26;40.40;;;17.17;;
49422;SDS011;36998;51.974;20.150;2022-12-26T02:18:52;33.10;;;16.08;;
49422;SDS011;36998;51.974;20.150;2022-12-26T02:24:15;38.90;;;16.30;;
49422;SDS011;36998;51.974;20.150;2022-12-26T02:39:32;37.47;;;14.77;;
49422;SDS011;36998;51.974;20.150;2022-12-26T02:44:20;33.40;;;15.68;;
49422;SDS011;36998;51.974;20.150;2022-12-26T02:47:14;34.20;;;15.80;;
49422;SDS011;36998;51.974;20.150;2022-12-26T02:50:00;31.10;;;14.73;;
49422;SDS011;36998;51.974;20.150;2022-12-26T02:52:58;33.72;;;15.05;;
49422;SDS011;36998;51.974;20.150;2022-12-26T02:55:54;38.08;;;15.30;;
49422;SDS011;36998;51.974;20.150;2022-12-26T02:59:00;31.42;;;14.45;;
49422;SDS011;36998;51.974;20.150;2022-12-26T03:01:51;30.27;;;14.73;;
49422;SDS011;36998;51.974;20.150;2022-12-26T03:04:39;31.33;;;15.18;;
49422;SDS011;36998;51.974;20.150;2022-12-26T03:07:28;28.05;;;13.73;;
49422;SDS011;36998;51.974;20.150;2022-12-26T03:10:19;34.80;;;14.15;;
49422;SDS011;36998;51.974;20.150;2022-12-26T03:13:10;32.58;;;13.73;;
49422;SDS011;36998;51.974;20.150;2022-12-26T03:18:42;30.55;;;15.05;;
49422;SDS011;36998;51.974;20.150;2022-12-26T03:21:13;31.30;;;14.32;;
49422;SDS011;36998;51.974;20.150;2022-12-26T03:23:41;33.55;;;14.57;;
49422;SDS011;36998;51.974;20.150;2022-12-26T03:26:11;38.00;;;14.05;;
49422;SDS011;36998;51.974;20.150;2022-12-26T03:29:04;28.67;;;14.10;;
49422;SDS011;36998;51.974;20.150;2022-12-26T03:31:52;37.53;;;15.85;;
49422;SDS011;36998;51.974;20.150;2022-12-26T03:34:17;30.52;;;15.38;;
49422;SDS011;36998;51.974;20.150;2022-12-26T03:39:44;31.30;;;13.93;;
49422;SDS011;36998;51.974;20.150;2022-12-26T03:43:11;37.17;;;14.82;;
49422;SDS011;36998;51.974;20.150;2022-12-26T03:46:11;34.47;;;15.27;;
49422;SDS011;36998;51.974;20.150;2022-12-26T03:49:21;31.80;;;14.13;;
49422;SDS011;36998;51.974;20.150;2022-12-26T03:52:14;32.08;;;14.25;;
49422;SDS011;36998;51.974;20.150;2022-12-26T03:55:18;37.15;;;15.25;;
49422;SDS011;36998;51.974;20.150;2022-12-26T03:58:13;30.45;;;14.98;;
49422;SDS011;36998;51.974;20.150;2022-12-26T04:01:04;35.67;;;15.45;;
49422;SDS011;36998;51.974;20.150;2022-12-26T04:03:54;29.75;;;15.18;;
49422;SDS011;36998;51.974;20.150;2022-12-26T04:06:49;31.02;;;15.07;;
49422;SDS011;36998;51.974;20.150;2022-12-26T04:09:41;36.30;;;15.00;;
49422;SDS011;36998;51.974;20.150;2022-12-26T04:12:28;34.80;;;14.63;;
49422;SDS011;36998;51.974;20.150;2022-12-26T04:15:19;32.25;;;14.63;;
49422;SDS011;36998;51.974;20.150;2022-12-26T04:18:11;31.73;;;14.48;;
49422;SDS011;36998;51.974;20.150;2022-12-26T04:21:03;25.85;;;13.80;;
49422;SDS011;36998;51.974;20.150;2022-12-26T04:23:56;33.95;;;14.45;;
49422;SDS011;36998;51.974;20.150;2022-12-26T04:26:46;28.95;;;13.45;;
49422;SDS011;36998;51.974;20.150;2022-12-26T04:29:33;32.92;;;13.85;;
49422;SDS011;36998;51.974;20.150;2022-12-26T04:32:37;32.22;;;14.15;;
49422;SDS011;36998;51.974;20.150;2022-12-26T04:38:13;28.73;;;14.02;;
49422;SDS011;36998;51.974;20.150;2022-12-26T04:43:46;30.83;;;14.82;;
49422;SDS011;36998;51.974;20.150;2022-12-26T04:46:37;32.90;;;14.48;;
49422;SDS011;36998;51.974;20.150;2022-12-26T04:49:06;27.98;;;13.13;;
49422;SDS011;36998;51.974;20.150;2022-12-26T04:51:54;28.38;;;14.00;;
49422;SDS011;36998;51.974;20.150;2022-12-26T04:54:21;33.72;;;15.00;;
49422;SDS011;36998;51.974;20.150;2022-12-26T04:56:47;31.60;;;14.38;;
49422;SDS011;36998;51.974;20.150;2022-12-26T04:59:13;32.13;;;15.52;;
49422;SDS011;36998;51.974;20.150;2022-12-26T05:01:39;31.52;;;15.75;;
49422;SDS011;36998;51.974;20.150;2022-12-26T05:04:23;35.92;;;16.17;;
49422;SDS011;36998;51.974;20.150;2022-12-26T05:07:11;36.80;;;15.30;;
49422;SDS011;36998;51.974;20.150;2022-12-26T05:10:04;34.53;;;15.70;;
49422;SDS011;36998;51.974;20.150;2022-12-26T05:12:32;36.30;;;14.57;;
49422;SDS011;36998;51.974;20.150;2022-12-26T05:14:58;32.95;;;15.32;;
49422;SDS011;36998;51.974;20.150;2022-12-26T05:17:25;31.92;;;16.10;;
49422;SDS011;36998;51.974;20.150;2022-12-26T05:20:10;33.30;;;15.32;;
49422;SDS011;36998;51.974;20.150;2022-12-26T05:22:55;38.53;;;15.90;;
49422;SDS011;36998;51.974;20.150;2022-12-26T05:25:42;31.10;;;15.25;;
49422;SDS011;36998;51.974;20.150;2022-12-26T05:28:28;36.97;;;16.92;;
49422;SDS011;36998;51.974;20.150;2022-12-26T05:31:13;31.50;;;14.18;;
49422;SDS011;36998;51.974;20.150;2022-12-26T05:33:40;34.95;;;16.73;;
49422;SDS011;36998;51.974;20.150;2022-12-26T05:36:27;31.95;;;14.60;;
49422;SDS011;36998;51.974;20.150;2022-12-26T05:38:55;37.35;;;16.13;;
49422;SDS011;36998;51.974;20.150;2022-12-26T05:41:21;33.33;;;14.90;;
49422;SDS011;36998;51.974;20.150;2022-12-26T05:43:47;38.63;;;16.45;;
49422;SDS011;36998;51.974;20.150;2022-12-26T05:46:13;34.13;;;16.50;;
49422;SDS011;36998;51.974;20.150;2022-12-26T05:48:38;37.58;;;15.95;;
49422;SDS011;36998;51.974;20.150;2022-12-26T05:51:04;34.65;;;14.82;;
49422;SDS011;36998;51.974;20.150;2022-12-26T05:53:30;31.33;;;15.23;;
49422;SDS011;36998;51.974;20.150;2022-12-26T05:56:07;34.72;;;15.88;;
49422;SDS011;36998;51.974;20.150;2022-12-26T05:58:37;37.17;;;15.70;;
49422;SDS011;36998;51.974;20.150;2022-12-26T06:01:13;32.60;;;15.88;;
49422;SDS011;36998;51.974;20.150;2022-12-26T06:03:41;38.53;;;15.73;;
49422;SDS011;36998;51.974;20.150;2022-12-26T06:06:11;32.35;;;15.65;;
49422;SDS011;36998;51.974;20.150;2022-12-26T06:08:39;33.60;;;15.73;;
49422;SDS011;36998;51.974;20.150;2022-12-26T06:11:05;33.78;;;16.60;;
49422;SDS011;36998;51.974;20.150;2022-12-26T06:13:35;38.42;;;16.50;;
49422;SDS011;36998;51.974;20.150;2022-12-26T06:16:04;35.67;;;15.25;;
49422;SDS011;36998;51.974;20.150;2022-12-26T06:18:30;37.58;;;17.23;;
49422;SDS011;36998;51.974;20.150;2022-12-26T06:20:56;32.67;;;15.02;;
49422;SDS011;36998;51.974;20.150;2022-12-26T06:23:22;32.78;;;15.40;;
49422;SDS011;36998;51.974;20.150;2022-12-26T06:25:54;36.88;;;16.17;;
49422;SDS011;36998;51.974;20.150;2022-12-26T06:28:20;31.25;;;14.63;;
49422;SDS011;36998;51.974;20.150;2022-12-26T06:30:47;31.77;;;15.43;;
49422;SDS011;36998;51.974;20.150;2022-12-26T06:33:13;36.83;;;15.98;;
49422;SDS011;36998;51.974;20.150;2022-12-26T06:35:38;32.47;;;16.20;;
49422;SDS011;36998;51.974;20.150;2022-12-26T06:38:04;29.95;;;14.25;;
49422;SDS011;36998;51.974;20.150;2022-12-26T06:40:29;31.50;;;15.07;;
49422;SDS011;36998;51.974;20.150;2022-12-26T06:42:55;35.75;;;16.15;;
49422;SDS011;36998;51.974;20.150;2022-12-26T06:45:21;39.13;;;16.25;;
49422;SDS011;36998;51.974;20.150;2022-12-26T06:47:47;28.17;;;14.45;;
49422;SDS011;36998;51.974;20.150;2022-12-26T06:50:12;31.90;;;16.65;;
49422;SDS011;36998;51.974;20.150;2022-12-26T06:52:38;34.67;;;17.23;;
49422;SDS011;36998;51.974;20.150;2022-12-26T06:55:04;30.45;;;15.30;;
49422;SDS011;36998;51.974;20.150;2022-12-26T06:57:29;37.25;;;14.75;;
49422;SDS011;36998;51.974;20.150;2022-12-26T06:59:55;35.00;;;16.15;;
49422;SDS011;36998;51.974;20.150;2022-12-26T07:02:21;31.90;;;15.90;;
49422;SDS011;36998;51.974;20.150;2022-12-26T07:04:47;36.03;;;16.23;;
49422;SDS011;36998;51.974;20.150;2022-12-26T07:07:13;32.63;;;16.50;;
49422;SDS011;36998;51.974;20.150;2022-12-26T07:09:38;35.47;;;16.27;;
49422;SDS011;36998;51.974;20.150;2022-12-26T07:12:04;32.25;;;15.52;;
49422;SDS011;36998;51.974;20.150;2022-12-26T07:14:30;33.60;;;16.23;;
49422;SDS011;36998;51.974;20.150;2022-12-26T07:16:55;40.92;;;17.75;;
49422;SDS011;36998;51.974;20.150;2022-12-26T07:19:21;39.55;;;16.95;;
49422;SDS011;36998;51.974;20.150;2022-12-26T07:21:47;42.65;;;16.60;;
49422;SDS011;36998;51.974;20.150;2022-12-26T07:24:16;33.35;;;16.13;;
49422;SDS011;36998;51.974;20.150;2022-12-26T07:26:44;40.67;;;16.67;;
49422;SDS011;36998;51.974;20.150;2022-12-26T07:29:11;40.60;;;16.60;;
49422;SDS011;36998;51.974;20.150;2022-12-26T07:31:37;44.92;;;18.23;;
49422;SDS011;36998;51.974;20.150;2022-12-26T07:34:04;41.60;;;19.50;;
49422;SDS011;36998;51.974;20.150;2022-12-26T07:36:29;39.67;;;18.40;;
49422;SDS011;36998;51.974;20.150;2022-12-26T07:38:55;40.20;;;17.13;;
49422;SDS011;36998;51.974;20.150;2022-12-26T07:41:22;44.08;;;19.80;;
49422;SDS011;36998;51.974;20.150;2022-12-26T07:44:07;41.22;;;18.38;;
49422;SDS011;36998;51.974;20.150;2022-12-26T07:49:02;38.40;;;18.40;;
49422;SDS011;36998;51.974;20.150;2022-12-26T07:51:28;37.67;;;17.13;;
49422;SDS011;36998;51.974;20.150;2022-12-26T07:53:53;43.75;;;18.92;;
49422;SDS011;36998;51.974;20.150;2022-12-26T07:56:19;52.80;;;21.42;;
49422;SDS011;36998;51.974;20.150;2022-12-26T07:58:48;44.13;;;21.05;;
49422;SDS011;36998;51.974;20.150;2022-12-26T08:01:14;50.00;;;19.88;;
49422;SDS011;36998;51.974;20.150;2022-12-26T08:03:40;45.38;;;18.58;;
49422;SDS011;36998;51.974;20.150;2022-12-26T08:06:08;50.75;;;20.40;;
49422;SDS011;36998;51.974;20.150;2022-12-26T08:08:35;43.53;;;19.60;;
49422;SDS011;36998;51.974;20.150;2022-12-26T08:11:02;41.63;;;19.13;;
49422;SDS011;36998;51.974;20.150;2022-12-26T08:13:32;54.38;;;21.58;;
49422;SDS011;36998;51.974;20.150;2022-12-26T08:16:03;47.10;;;22.77;;
49422;SDS011;36998;51.974;20.150;2022-12-26T08:18:32;43.10;;;19.58;;
49422;SDS011;36998;51.974;20.150;2022-12-26T08:20:58;42.15;;;19.17;;
49422;SDS011;36998;51.974;20.150;2022-12-26T08:23:23;43.90;;;21.67;;
49422;SDS011;36998;51.974;20.150;2022-12-26T08:25:49;40.13;;;17.77;;
49422;SDS011;36998;51.974;20.150;2022-12-26T08:28:15;38.45;;;19.60;;
49422;SDS011;36998;51.974;20.150;2022-12-26T08:30:41;36.63;;;18.42;;
49422;SDS011;36998;51.974;20.150;2022-12-26T08:33:07;36.83;;;18.15;;
49422;SDS011;36998;51.974;20.150;2022-12-26T08:35:34;32.00;;;16.45;;
49422;SDS011;36998;51.974;20.150;2022-12-26T08:38:00;38.53;;;17.50;;
49422;SDS011;36998;51.974;20.150;2022-12-26T08:40:26;40.00;;;18.98;;
49422;SDS011;36998;51.974;20.150;2022-12-26T08:42:52;51.03;;;23.33;;
49422;SDS011;36998;51.974;20.150;2022-12-26T08:45:18;52.05;;;20.55;;
49422;SDS011;36998;51.974;20.150;2022-12-26T08:47:43;40.65;;;18.10;;
49422;SDS011;36998;51.974;20.150;2022-12-26T08:50:09;56.65;;;21.45;;
49422;SDS011;36998;51.974;20.150;2022-12-26T08:52:35;59.88;;;23.95;;
49422;SDS011;36998;51.974;20.150;2022-12-26T08:55:01;47.90;;;21.35;;
49422;SDS011;36998;51.974;20.150;2022-12-26T08:57:27;39.65;;;20.13;;
49422;SDS011;36998;51.974;20.150;2022-12-26T08:59:53;44.97;;;20.80;;
49422;SDS011;36998;51.974;20.150;2022-12-26T09:02:18;44.55;;;21.52;;
49422;SDS011;36998;51.974;20.150;2022-12-26T09:04:44;39.50;;;17.73;;
49422;SDS011;36998;51.974;20.150;2022-12-26T09:07:10;35.55;;;17.10;;
49422;SDS011;36998;51.974;20.150;2022-12-26T09:09:35;32.63;;;17.27;;
49422;SDS011;36998;51.974;20.150;2022-12-26T09:12:01;34.47;;;17.58;;
49422;SDS011;36998;51.974;20.150;2022-12-26T09:14:27;32.60;;;14.88;;
49422;SDS011;36998;51.974;20.150;2022-12-26T09:16:52;40.38;;;16.88;;
49422;SDS011;36998;51.974;20.150;2022-12-26T09:19:19;39.95;;;18.75;;
49422;SDS011;36998;51.974;20.150;2022-12-26T09:21:46;37.85;;;18.60;;
49422;SDS011;36998;51.974;20.150;2022-12-26T09:24:14;43.05;;;19.50;;
49422;SDS011;36998;51.974;20.150;2022-12-26T09:26:41;41.63;;;18.60;;
49422;SDS011;36998;51.974;20.150;2022-12-26T09:29:11;39.13;;;18.23;;
49422;SDS011;36998;51.974;20.150;2022-12-26T09:31:38;39.83;;;15.82;;
49422;SDS011;36998;51.974;20.150;2022-12-26T09:34:04;43.67;;;20.15;;
49422;SDS011;36998;51.974;20.150;2022-12-26T09:36:32;43.50;;;18.67;;
49422;SDS011;36998;51.974;20.150;2022-12-26T09:39:04;41.03;;;17.45;;
49422;SDS011;36998;51.974;20.150;2022-12-26T09:44:16;40.95;;;17.95;;
49422;SDS011;36998;51.974;20.150;2022-12-26T09:46:53;35.95;;;17.02;;
49422;SDS011;36998;51.974;20.150;2022-12-26T09:49:31;39.85;;;17.98;;
49422;SDS011;36998;51.974;20.150;2022-12-26T09:52:03;40.78;;;18.33;;
49422;SDS011;36998;51.974;20.150;2022-12-26T09:54:53;36.40;;;16.50;;
49422;SDS011;36998;51.974;20.150;2022-12-26T09:59:57;31.83;;;14.95;;
49422;SDS011;36998;51.974;20.150;2022-12-26T10:02:25;33.45;;;15.35;;
49422;SDS011;36998;51.974;20.150;2022-12-26T10:04:52;37.38;;;16.85;;
49422;SDS011;36998;51.974;20.150;2022-12-26T10:10:07;33.80;;;15.85;;
49422;SDS011;36998;51.974;20.150;2022-12-26T10:23:44;24.83;;;12.80;;
49422;SDS011;36998;51.974;20.150;2022-12-26T10:36:34;21.33;;;10.05;;
49422;SDS011;36998;51.974;20.150;2022-12-26T10:39:25;20.98;;;10.35;;
49422;SDS011;36998;51.974;20.150;2022-12-26T10:41:57;20.75;;;9.05;;
49422;SDS011;36998;51.974;20.150;2022-12-26T10:44:27;19.55;;;9.45;;
49422;SDS011;36998;51.974;20.150;2022-12-26T10:47:53;17.30;;;9.20;;
49422;SDS011;36998;51.974;20.150;2022-12-26T10:49:50;16.08;;;9.45;;
49422;SDS011;36998;51.974;20.150;2022-12-26T10:52:17;17.20;;;8.70;;
49422;SDS011;36998;51.974;20.150;2022-12-26T10:54:54;19.98;;;9.13;;
49422;SDS011;36998;51.974;20.150;2022-12-26T10:57:22;20.02;;;9.75;;
49422;SDS011;36998;51.974;20.150;2022-12-26T10:59:49;18.25;;;9.68;;
49422;SDS011;36998;51.974;20.150;2022-12-26T11:04:55;16.10;;;8.23;;
49422;SDS011;36998;51.974;20.150;2022-12-26T11:07:26;21.63;;;9.20;;
49422;SDS011;36998;51.974;20.150;2022-12-26T11:09:55;18.67;;;9.82;;
49422;SDS011;36998;51.974;20.150;2022-12-26T11:12:41;20.52;;;9.35;;
49422;SDS011;36998;51.974;20.150;2022-12-26T11:17:43;18.23;;;9.65;;
49422;SDS011;36998;51.974;20.150;2022-12-26T11:22:44;16.35;;;7.70;;
49422;SDS011;36998;51.974;20.150;2022-12-26T11:25:12;15.20;;;8.45;;
49422;SDS011;36998;51.974;20.150;2022-12-26T11:27:53;20.33;;;8.05;;
49422;SDS011;36998;51.974;20.150;2022-12-26T11:30:30;14.30;;;7.50;;
49422;SDS011;36998;51.974;20.150;2022-12-26T11:38:16;16.83;;;8.73;;
49422;SDS011;36998;51.974;20.150;2022-12-26T11:41:15;15.95;;;8.75;;
49422;SDS011;36998;51.974;20.150;2022-12-26T11:43:57;16.35;;;7.95;;
49422;SDS011;36998;51.974;20.150;2022-12-26T11:46:37;18.20;;;8.80;;
49422;SDS011;36998;51.974;20.150;2022-12-26T11:49:06;92.90;;;18.70;;
49422;SDS011;36998;51.974;20.150;2022-12-26T11:51:42;21.02;;;9.38;;
49422;SDS011;36998;51.974;20.150;2022-12-26T11:54:14;19.30;;;9.02;;
49422;SDS011;36998;51.974;20.150;2022-12-26T11:56:43;17.70;;;8.10;;
49422;SDS011;36998;51.974;20.150;2022-12-26T11:59:17;16.38;;;7.43;;
49422;SDS011;36998;51.974;20.150;2022-12-26T12:01:45;19.70;;;7.55;;
49422;SDS011;36998;51.974;20.150;2022-12-26T12:04:11;23.17;;;9.18;;
49422;SDS011;36998;51.974;20.150;2022-12-26T12:09:26;17.00;;;7.75;;
49422;SDS011;36998;51.974;20.150;2022-12-26T12:18:00;15.65;;;7.60;;
49422;SDS011;36998;51.974;20.150;2022-12-26T12:21:01;20.48;;;9.10;;
49422;SDS011;36998;51.974;20.150;2022-12-26T12:23:56;15.50;;;8.15;;
49422;SDS011;36998;51.974;20.150;2022-12-26T12:26:31;17.95;;;10.52;;
49422;SDS011;36998;51.974;20.150;2022-12-26T12:45:32;15.13;;;7.40;;
49422;SDS011;36998;51.974;20.150;2022-12-26T12:48:24;14.23;;;7.40;;
49422;SDS011;36998;51.974;20.150;2022-12-26T13:02:41;18.48;;;6.10;;
49422;SDS011;36998;51.974;20.150;2022-12-26T13:08:00;13.23;;;7.15;;
49422;SDS011;36998;51.974;20.150;2022-12-26T13:10:31;13.95;;;6.60;;
49422;SDS011;36998;51.974;20.150;2022-12-26T13:13:08;13.90;;;6.20;;
49422;SDS011;36998;51.974;20.150;2022-12-26T13:15:43;12.32;;;5.80;;
49422;SDS011;36998;51.974;20.150;2022-12-26T13:18:20;14.63;;;6.10;;
49422;SDS011;36998;51.974;20.150;2022-12-26T13:23:27;16.50;;;7.05;;
49422;SDS011;36998;51.974;20.150;2022-12-26T13:26:36;16.25;;;6.85;;
49422;SDS011;36998;51.974;20.150;2022-12-26T13:29:10;14.73;;;6.85;;
49422;SDS011;36998;51.974;20.150;2022-12-26T13:31:48;13.30;;;6.50;;
49422;SDS011;36998;51.974;20.150;2022-12-26T13:34:15;15.00;;;6.85;;
49422;SDS011;36998;51.974;20.150;2022-12-26T13:36:50;14.05;;;6.53;;
49422;SDS011;36998;51.974;20.150;2022-12-26T13:41:50;13.00;;;6.32;;
49422;SDS011;36998;51.974;20.150;2022-12-26T13:44:38;17.35;;;6.72;;
49422;SDS011;36998;51.974;20.150;2022-12-26T13:47:04;16.13;;;6.88;;
49422;SDS011;36998;51.974;20.150;2022-12-26T14:00:00;28.83;;;11.18;;
49422;SDS011;36998;51.974;20.150;2022-12-26T14:09:08;18.75;;;8.20;;
49422;SDS011;36998;51.974;20.150;2022-12-26T14:17:48;19.63;;;8.52;;
49422;SDS011;36998;51.974;20.150;2022-12-26T14:20:25;17.50;;;8.07;;
49422;SDS011;36998;51.974;20.150;2022-12-26T14:31:43;21.15;;;9.50;;
49422;SDS011;36998;51.974;20.150;2022-12-26T14:42:30;17.75;;;8.75;;
49422;SDS011;36998;51.974;20.150;2022-12-26T14:47:50;16.65;;;8.25;;
49422;SDS011;36998;51.974;20.150;2022-12-26T14:58:27;17.77;;;8.73;;
49422;SDS011;36998;51.974;20.150;2022-12-26T15:06:22;22.30;;;8.57;;
49422;SDS011;36998;51.974;20.150;2022-12-26T15:22:40;20.40;;;10.00;;
49422;SDS011;36998;51.974;20.150;2022-12-26T15:35:46;26.02;;;10.98;;
49422;SDS011;36998;51.974;20.150;2022-12-26T15:38:22;26.63;;;11.07;;
49422;SDS011;36998;51.974;20.150;2022-12-26T15:46:21;28.75;;;11.57;;
49422;SDS011;36998;51.974;20.150;2022-12-26T15:54:06;21.58;;;10.40;;
49422;SDS011;36998;51.974;20.150;2022-12-26T15:57:10;21.73;;;10.70;;
49422;SDS011;36998;51.974;20.150;2022-12-26T16:02:44;19.92;;;9.82;;
49422;SDS011;36998;51.974;20.150;2022-12-26T16:08:07;19.35;;;10.10;;
49422;SDS011;36998;51.974;20.150;2022-12-26T16:10:35;21.13;;;10.43;;
49422;SDS011;36998;51.974;20.150;2022-12-26T16:15:55;23.02;;;10.35;;
49422;SDS011;36998;51.974;20.150;2022-12-26T16:18:31;23.83;;;11.18;;
49422;SDS011;36998;51.974;20.150;2022-12-26T16:20:59;24.40;;;10.27;;
49422;SDS011;36998;51.974;20.150;2022-12-26T16:23:48;22.70;;;10.32;;
49422;SDS011;36998;51.974;20.150;2022-12-26T16:26:20;26.00;;;11.00;;
49422;SDS011;36998;51.974;20.150;2022-12-26T16:28:49;23.25;;;10.95;;
49422;SDS011;36998;51.974;20.150;2022-12-26T16:31:22;27.40;;;10.40;;
49422;SDS011;36998;51.974;20.150;2022-12-26T16:33:55;31.23;;;11.75;;
49422;SDS011;36998;51.974;20.150;2022-12-26T16:36:24;23.50;;;11.40;;
49422;SDS011;36998;51.974;20.150;2022-12-26T16:38:51;25.50;;;11.07;;
49422;SDS011;36998;51.974;20.150;2022-12-26T16:41:28;23.10;;;11.80;;
49422;SDS011;36998;51.974;20.150;2022-12-26T16:43:56;27.35;;;11.15;;
49422;SDS011;36998;51.974;20.150;2022-12-26T16:46:42;23.23;;;10.80;;
49422;SDS011;36998;51.974;20.150;2022-12-26T16:49:08;25.05;;;12.05;;
49422;SDS011;36998;51.974;20.150;2022-12-26T16:54:29;22.45;;;10.48;;
49422;SDS011;36998;51.974;20.150;2022-12-26T16:59:54;20.60;;;10.18;;
49422;SDS011;36998;51.974;20.150;2022-12-26T17:02:29;19.40;;;9.32;;
49422;SDS011;36998;51.974;20.150;2022-12-26T17:04:58;18.80;;;8.23;;
49422;SDS011;36998;51.974;20.150;2022-12-26T17:07:26;20.53;;;10.90;;
49422;SDS011;36998;51.974;20.150;2022-12-26T17:09:53;23.60;;;10.68;;
49422;SDS011;36998;51.974;20.150;2022-12-26T17:12:26;23.65;;;11.43;;
49422;SDS011;36998;51.974;20.150;2022-12-26T17:14:54;22.35;;;11.45;;
49422;SDS011;36998;51.974;20.150;2022-12-26T17:19:52;20.55;;;9.77;;
49422;SDS011;36998;51.974;20.150;2022-12-26T17:25:39;24.13;;;11.32;;
49422;SDS011;36998;51.974;20.150;2022-12-26T17:30:33;26.42;;;10.63;;
49422;SDS011;36998;51.974;20.150;2022-12-26T17:33:02;18.65;;;9.43;;
49422;SDS011;36998;51.974;20.150;2022-12-26T17:35:30;19.95;;;9.40;;
49422;SDS011;36998;51.974;20.150;2022-12-26T17:38:00;22.48;;;9.98;;
49422;SDS011;36998;51.974;20.150;2022-12-26T17:40:33;21.30;;;10.00;;
49422;SDS011;36998;51.974;20.150;2022-12-26T17:43:04;19.25;;;8.38;;
49422;SDS011;36998;51.974;20.150;2022-12-26T17:45:36;19.58;;;8.90;;
49422;SDS011;36998;51.974;20.150;2022-12-26T17:48:03;11.38;;;6.32;;
49422;SDS011;36998;51.974;20.150;2022-12-26T17:50:30;17.35;;;8.80;;
49422;SDS011;36998;51.974;20.150;2022-12-26T17:55:31;22.80;;;8.63;;
49422;SDS011;36998;51.974;20.150;2022-12-26T17:57:57;21.77;;;9.00;;
49422;SDS011;36998;51.974;20.150;2022-12-26T18:00:24;22.17;;;9.07;;
49422;SDS011;36998;51.974;20.150;2022-12-26T18:02:51;23.80;;;10.48;;
49422;SDS011;36998;51.974;20.150;2022-12-26T18:05:18;22.98;;;11.38;;
49422;SDS011;36998;51.974;20.150;2022-12-26T18:07:45;25.95;;;11.05;;
49422;SDS011;36998;51.974;20.150;2022-12-26T18:10:16;23.55;;;11.38;;
49422;SDS011;36998;51.974;20.150;2022-12-26T18:12:43;21.80;;;9.52;;
49422;SDS011;36998;51.974;20.150;2022-12-26T18:15:09;17.77;;;9.35;;
49422;SDS011;36998;51.974;20.150;2022-12-26T18:17:35;22.70;;;11.00;;
49422;SDS011;36998;51.974;20.150;2022-12-26T18:20:02;22.95;;;11.18;;
49422;SDS011;36998;51.974;20.150;2022-12-26T18:22:28;23.17;;;10.15;;
49422;SDS011;36998;51.974;20.150;2022-12-26T18:24:54;26.73;;;11.32;;
49422;SDS011;36998;51.974;20.150;2022-12-26T18:27:20;20.83;;;11.00;;
49422;SDS011;36998;51.974;20.150;2022-12-26T18:29:51;25.23;;;9.93;;
49422;SDS011;36998;51.974;20.150;2022-12-26T18:32:24;21.15;;;10.55;;
49422;SDS011;36998;51.974;20.150;2022-12-26T18:34:52;22.38;;;10.10;;
49422;SDS011;36998;51.974;20.150;2022-12-26T18:37:18;20.38;;;9.93;;
49422;SDS011;36998;51.974;20.150;2022-12-26T18:39:45;21.23;;;10.77;;
49422;SDS011;36998;51.974;20.150;2022-12-26T18:42:11;23.60;;;11.23;;